sensor_id;sensor_type;location;lat;lon;timestamp;temperature;humidity
38500;DHT22;24269;51.894;4.622;2022-07-23T00:00:48;15.80;99.90
38500;DHT22;24269;51.894;4.622;2022-07-23T00:03:14;15.80;99.90
38500;DHT22;24269;51.894;4.622;2022-07-23T00:05:40;15.70;99.90
38500;DHT22;24269;51.894;4.622;2022-07-23T00:08:06;15.70;99.90
38500;DHT22;24269;51.894;4.622;2022-07-23T00:10:33;15.70;99.90
38500;DHT22;24269;51.894;4.622;2022-07-23T00:12:58;15.70;99.90
38500;DHT22;24269;51.894;4.622;2022-07-23T00:15:24;15.70;99.90
38500;DHT22;24269;51.894;4.622;2022-07-23T00:17:50;15.70;99.90
38500;DHT22;24269;51.894;4.622;2022-07-23T00:20:15;15.70;99.90
38500;DHT22;24269;51.894;4.622;2022-07-23T00:22:51;15.60;99.90
38500;DHT22;24269;51.894;4.622;2022-07-23T00:25:18;15.60;99.90
38500;DHT22;24269;51.894;4.622;2022-07-23T00:27:43;15.60;99.90
38500;DHT22;24269;51.894;4.622;2022-07-23T00:30:09;15.50;99.90
38500;DHT22;24269;51.894;4.622;2022-07-23T00:32:52;15.50;99.90
38500;DHT22;24269;51.894;4.622;2022-07-23T00:35:22;15.50;99.90
38500;DHT22;24269;51.894;4.622;2022-07-23T00:37:48;15.50;99.90
38500;DHT22;24269;51.894;4.622;2022-07-23T00:40:14;15.50;99.90
38500;DHT22;24269;51.894;4.622;2022-07-23T00:42:40;15.50;99.90
38500;DHT22;24269;51.894;4.622;2022-07-23T00:45:07;15.50;99.90
38500;DHT22;24269;51.894;4.622;2022-07-23T00:47:33;15.60;99.90
38500;DHT22;24269;51.894;4.622;2022-07-23T00:49:58;15.60;99.90
38500;DHT22;24269;51.894;4.622;2022-07-23T00:52:24;15.60;99.90
38500;DHT22;24269;51.894;4.622;2022-07-23T00:54:50;15.60;99.90
38500;DHT22;24269;51.894;4.622;2022-07-23T00:57:16;15.60;99.90
38500;DHT22;24269;51.894;4.622;2022-07-23T00:59:42;15.60;99.90
38500;DHT22;24269;51.894;4.622;2022-07-23T01:02:07;15.60;99.90
38500;DHT22;24269;51.894;4.622;2022-07-23T01:04:33;15.60;99.90
38500;DHT22;24269;51.894;4.622;2022-07-23T01:06:59;15.60;99.90
38500;DHT22;24269;51.894;4.622;2022-07-23T01:09:26;15.50;99.90
38500;DHT22;24269;51.894;4.622;2022-07-23T01:11:51;15.50;99.90
38500;DHT22;24269;51.894;4.622;2022-07-23T01:14:19;15.50;99.90
38500;DHT22;24269;51.894;4.622;2022-07-23T01:16:47;15.50;99.90
38500;DHT22;24269;51.894;4.622;2022-07-23T01:19:14;15.40;99.90
38500;DHT22;24269;51.894;4.622;2022-07-23T01:21:45;15.40;99.90
38500;DHT22;24269;51.894;4.622;2022-07-23T01:24:11;15.30;99.90
38500;DHT22;24269;51.894;4.622;2022-07-23T01:26:38;15.30;99.90
38500;DHT22;24269;51.894;4.622;2022-07-23T01:29:05;15.20;99.90
38500;DHT22;24269;51.894;4.622;2022-07-23T01:31:31;15.20;99.90
38500;DHT22;24269;51.894;4.622;2022-07-23T01:33:57;15.10;99.90
38500;DHT22;24269;51.894;4.622;2022-07-23T01:36:23;15.10;99.90
38500;DHT22;24269;51.894;4.622;2022-07-23T01:38:49;15.10;99.90
38500;DHT22;24269;51.894;4.622;2022-07-23T01:41:14;15.10;99.90
38500;DHT22;24269;51.894;4.622;2022-07-23T01:43:40;15.10;99.90
38500;DHT22;24269;51.894;4.622;2022-07-23T01:46:06;15.10;99.90
38500;DHT22;24269;51.894;4.622;2022-07-23T01:48:31;15.00;99.90
38500;DHT22;24269;51.894;4.622;2022-07-23T01:50:57;15.00;99.90
38500;DHT22;24269;51.894;4.622;2022-07-23T01:53:23;15.00;99.90
38500;DHT22;24269;51.894;4.622;2022-07-23T01:55:48;15.00;99.90
38500;DHT22;24269;51.894;4.622;2022-07-23T01:58:14;15.00;99.90
38500;DHT22;24269;51.894;4.622;2022-07-23T02:00:39;15.00;99.90
38500;DHT22;24269;51.894;4.622;2022-07-23T02:03:05;15.00;99.90
38500;DHT22;24269;51.894;4.622;2022-07-23T02:05:31;15.10;99.90
38500;DHT22;24269;51.894;4.622;2022-07-23T02:07:58;15.10;99.90
38500;DHT22;24269;51.894;4.622;2022-07-23T02:10:24;15.00;99.90
38500;DHT22;24269;51.894;4.622;2022-07-23T02:12:49;15.00;99.90
38500;DHT22;24269;51.894;4.622;2022-07-23T02:15:15;15.00;99.90
38500;DHT22;24269;51.894;4.622;2022-07-23T02:17:41;14.90;99.90
38500;DHT22;24269;51.894;4.622;2022-07-23T02:20:08;14.80;99.90
38500;DHT22;24269;51.894;4.622;2022-07-23T02:22:34;14.80;99.90
38500;DHT22;24269;51.894;4.622;2022-07-23T02:25:00;14.80;99.90
38500;DHT22;24269;51.894;4.622;2022-07-23T02:27:26;14.80;99.90
38500;DHT22;24269;51.894;4.622;2022-07-23T02:29:53;14.80;99.90
38500;DHT22;24269;51.894;4.622;2022-07-23T02:32:19;14.80;99.90
38500;DHT22;24269;51.894;4.622;2022-07-23T02:34:46;14.80;99.90
38500;DHT22;24269;51.894;4.622;2022-07-23T02:37:12;14.80;99.90
38500;DHT22;24269;51.894;4.622;2022-07-23T02:39:38;14.80;99.90
38500;DHT22;24269;51.894;4.622;2022-07-23T02:42:04;14.70;99.90
38500;DHT22;24269;51.894;4.622;2022-07-23T02:44:29;14.70;99.90
38500;DHT22;24269;51.894;4.622;2022-07-23T02:46:55;14.70;99.90
38500;DHT22;24269;51.894;4.622;2022-07-23T02:49:21;14.60;99.90
38500;DHT22;24269;51.894;4.622;2022-07-23T02:51:46;14.60;99.90
38500;DHT22;24269;51.894;4.622;2022-07-23T02:54:12;14.60;99.90
38500;DHT22;24269;51.894;4.622;2022-07-23T02:56:38;14.50;99.90
38500;DHT22;24269;51.894;4.622;2022-07-23T02:59:03;14.60;99.90
38500;DHT22;24269;51.894;4.622;2022-07-23T03:01:29;14.50;99.90
38500;DHT22;24269;51.894;4.622;2022-07-23T03:03:55;14.50;99.90
38500;DHT22;24269;51.894;4.622;2022-07-23T03:06:20;14.50;99.90
38500;DHT22;24269;51.894;4.622;2022-07-23T03:08:46;14.40;99.90
38500;DHT22;24269;51.894;4.622;2022-07-23T03:11:12;14.40;99.90
38500;DHT22;24269;51.894;4.622;2022-07-23T03:13:38;14.30;99.90
38500;DHT22;24269;51.894;4.622;2022-07-23T03:16:04;14.30;99.90
38500;DHT22;24269;51.894;4.622;2022-07-23T03:18:30;14.30;99.90
38500;DHT22;24269;51.894;4.622;2022-07-23T03:20:56;14.30;99.90
38500;DHT22;24269;51.894;4.622;2022-07-23T03:23:22;14.30;99.90
38500;DHT22;24269;51.894;4.622;2022-07-23T03:25:47;14.30;99.90
38500;DHT22;24269;51.894;4.622;2022-07-23T03:28:18;14.30;99.90
38500;DHT22;24269;51.894;4.622;2022-07-23T03:30:44;14.40;99.90
38500;DHT22;24269;51.894;4.622;2022-07-23T03:33:12;14.30;99.90
38500;DHT22;24269;51.894;4.622;2022-07-23T03:35:38;14.30;99.90
38500;DHT22;24269;51.894;4.622;2022-07-23T03:38:04;14.20;99.90
38500;DHT22;24269;51.894;4.622;2022-07-23T03:40:30;14.30;99.90
38500;DHT22;24269;51.894;4.622;2022-07-23T03:42:55;14.20;99.90
38500;DHT22;24269;51.894;4.622;2022-07-23T03:45:21;14.30;99.90
38500;DHT22;24269;51.894;4.622;2022-07-23T03:47:46;14.30;99.90
38500;DHT22;24269;51.894;4.622;2022-07-23T03:50:12;14.20;99.90
38500;DHT22;24269;51.894;4.622;2022-07-23T03:52:37;14.20;99.90
38500;DHT22;24269;51.894;4.622;2022-07-23T03:55:03;14.30;99.90
38500;DHT22;24269;51.894;4.622;2022-07-23T03:57:29;14.20;99.90
38500;DHT22;24269;51.894;4.622;2022-07-23T03:59:55;14.20;99.90
38500;DHT22;24269;51.894;4.622;2022-07-23T04:02:21;14.20;99.90
38500;DHT22;24269;51.894;4.622;2022-07-23T04:04:46;14.20;99.90
38500;DHT22;24269;51.894;4.622;2022-07-23T04:07:12;14.20;99.90
38500;DHT22;24269;51.894;4.622;2022-07-23T04:09:39;14.20;99.90
38500;DHT22;24269;51.894;4.622;2022-07-23T04:12:06;14.20;99.90
38500;DHT22;24269;51.894;4.622;2022-07-23T04:14:32;14.30;99.90
38500;DHT22;24269;51.894;4.622;2022-07-23T04:16:59;14.30;99.90
38500;DHT22;24269;51.894;4.622;2022-07-23T04:19:25;14.30;99.90
38500;DHT22;24269;51.894;4.622;2022-07-23T04:21:51;14.40;99.90
38500;DHT22;24269;51.894;4.622;2022-07-23T04:24:16;14.40;99.90
38500;DHT22;24269;51.894;4.622;2022-07-23T04:26:42;14.50;99.90
38500;DHT22;24269;51.894;4.622;2022-07-23T04:29:08;14.50;99.90
38500;DHT22;24269;51.894;4.622;2022-07-23T04:31:33;14.50;99.90
38500;DHT22;24269;51.894;4.622;2022-07-23T04:33:59;14.60;99.90
38500;DHT22;24269;51.894;4.622;2022-07-23T04:36:24;14.70;99.90
38500;DHT22;24269;51.894;4.622;2022-07-23T04:38:50;14.80;99.90
38500;DHT22;24269;51.894;4.622;2022-07-23T04:41:16;14.80;99.90
38500;DHT22;24269;51.894;4.622;2022-07-23T04:43:41;14.80;99.90
38500;DHT22;24269;51.894;4.622;2022-07-23T04:46:07;14.90;99.90
38500;DHT22;24269;51.894;4.622;2022-07-23T04:48:32;14.90;99.90
38500;DHT22;24269;51.894;4.622;2022-07-23T04:50:58;14.90;99.90
38500;DHT22;24269;51.894;4.622;2022-07-23T04:53:24;14.90;99.90
38500;DHT22;24269;51.894;4.622;2022-07-23T04:55:49;14.90;99.90
38500;DHT22;24269;51.894;4.622;2022-07-23T04:58:15;14.90;99.90
38500;DHT22;24269;51.894;4.622;2022-07-23T05:00:41;14.90;99.90
38500;DHT22;24269;51.894;4.622;2022-07-23T05:03:06;14.90;99.90
38500;DHT22;24269;51.894;4.622;2022-07-23T05:05:32;15.00;99.90
38500;DHT22;24269;51.894;4.622;2022-07-23T05:07:58;15.00;99.90
38500;DHT22;24269;51.894;4.622;2022-07-23T05:10:23;15.00;99.90
38500;DHT22;24269;51.894;4.622;2022-07-23T05:12:49;15.00;99.90
38500;DHT22;24269;51.894;4.622;2022-07-23T05:15:15;15.10;99.90
38500;DHT22;24269;51.894;4.622;2022-07-23T05:17:40;15.10;99.90
38500;DHT22;24269;51.894;4.622;2022-07-23T05:20:06;15.10;99.90
38500;DHT22;24269;51.894;4.622;2022-07-23T05:22:32;15.10;99.90
38500;DHT22;24269;51.894;4.622;2022-07-23T05:24:58;15.10;99.90
38500;DHT22;24269;51.894;4.622;2022-07-23T05:27:24;15.20;99.90
38500;DHT22;24269;51.894;4.622;2022-07-23T05:29:49;15.20;99.90
38500;DHT22;24269;51.894;4.622;2022-07-23T05:32:15;15.20;99.90
38500;DHT22;24269;51.894;4.622;2022-07-23T05:34:40;15.30;99.90
38500;DHT22;24269;51.894;4.622;2022-07-23T05:37:06;15.30;99.90
38500;DHT22;24269;51.894;4.622;2022-07-23T05:39:32;15.30;99.90
38500;DHT22;24269;51.894;4.622;2022-07-23T05:41:57;15.40;99.90
38500;DHT22;24269;51.894;4.622;2022-07-23T05:44:23;15.40;99.90
38500;DHT22;24269;51.894;4.622;2022-07-23T05:46:48;15.50;99.90
38500;DHT22;24269;51.894;4.622;2022-07-23T05:49:14;15.60;99.90
38500;DHT22;24269;51.894;4.622;2022-07-23T05:51:40;15.60;99.90
38500;DHT22;24269;51.894;4.622;2022-07-23T05:54:05;15.60;99.90
38500;DHT22;24269;51.894;4.622;2022-07-23T05:56:31;15.60;99.90
38500;DHT22;24269;51.894;4.622;2022-07-23T05:58:57;15.70;99.90
38500;DHT22;24269;51.894;4.622;2022-07-23T06:01:22;15.80;99.90
38500;DHT22;24269;51.894;4.622;2022-07-23T06:03:48;15.70;99.90
38500;DHT22;24269;51.894;4.622;2022-07-23T06:06:14;15.70;99.90
38500;DHT22;24269;51.894;4.622;2022-07-23T06:08:39;15.70;99.90
38500;DHT22;24269;51.894;4.622;2022-07-23T06:11:05;15.80;99.90
38500;DHT22;24269;51.894;4.622;2022-07-23T06:13:30;16.00;99.90
38500;DHT22;24269;51.894;4.622;2022-07-23T06:15:56;16.00;99.90
38500;DHT22;24269;51.894;4.622;2022-07-23T06:18:22;16.10;99.90
38500;DHT22;24269;51.894;4.622;2022-07-23T06:20:47;16.20;99.90
38500;DHT22;24269;51.894;4.622;2022-07-23T06:23:13;16.30;99.90
38500;DHT22;24269;51.894;4.622;2022-07-23T06:25:38;16.50;99.90
38500;DHT22;24269;51.894;4.622;2022-07-23T06:28:04;16.60;99.90
38500;DHT22;24269;51.894;4.622;2022-07-23T06:30:30;16.80;99.90
38500;DHT22;24269;51.894;4.622;2022-07-23T06:32:56;16.90;99.90
38500;DHT22;24269;51.894;4.622;2022-07-23T06:35:22;17.10;99.90
38500;DHT22;24269;51.894;4.622;2022-07-23T06:37:47;17.10;99.90
38500;DHT22;24269;51.894;4.622;2022-07-23T06:40:13;17.20;99.90
38500;DHT22;24269;51.894;4.622;2022-07-23T06:42:39;17.20;99.90
38500;DHT22;24269;51.894;4.622;2022-07-23T06:45:06;17.20;99.90
38500;DHT22;24269;51.894;4.622;2022-07-23T06:47:32;17.20;99.90
38500;DHT22;24269;51.894;4.622;2022-07-23T06:49:57;17.20;99.90
38500;DHT22;24269;51.894;4.622;2022-07-23T06:52:23;17.30;99.90
38500;DHT22;24269;51.894;4.622;2022-07-23T06:54:49;17.40;99.90
38500;DHT22;24269;51.894;4.622;2022-07-23T06:57:15;17.50;99.90
38500;DHT22;24269;51.894;4.622;2022-07-23T06:59:40;17.40;99.90
38500;DHT22;24269;51.894;4.622;2022-07-23T07:02:07;17.40;99.90
38500;DHT22;24269;51.894;4.622;2022-07-23T07:04:33;17.40;99.90
38500;DHT22;24269;51.894;4.622;2022-07-23T07:06:59;17.40;99.90
38500;DHT22;24269;51.894;4.622;2022-07-23T07:09:25;17.50;99.90
38500;DHT22;24269;51.894;4.622;2022-07-23T07:11:50;17.70;99.90
38500;DHT22;24269;51.894;4.622;2022-07-23T07:14:16;17.90;99.90
38500;DHT22;24269;51.894;4.622;2022-07-23T07:16:41;18.10;99.90
38500;DHT22;24269;51.894;4.622;2022-07-23T07:19:07;18.20;99.90
38500;DHT22;24269;51.894;4.622;2022-07-23T07:21:32;18.20;99.90
38500;DHT22;24269;51.894;4.622;2022-07-23T07:23:58;18.30;99.90
38500;DHT22;24269;51.894;4.622;2022-07-23T07:26:24;18.50;99.90
38500;DHT22;24269;51.894;4.622;2022-07-23T07:28:49;18.60;99.90
38500;DHT22;24269;51.894;4.622;2022-07-23T07:31:15;18.70;99.90
38500;DHT22;24269;51.894;4.622;2022-07-23T07:33:40;18.90;99.90
38500;DHT22;24269;51.894;4.622;2022-07-23T07:36:06;19.00;99.90
38500;DHT22;24269;51.894;4.622;2022-07-23T07:38:32;18.90;99.90
38500;DHT22;24269;51.894;4.622;2022-07-23T07:40:57;18.80;99.90
38500;DHT22;24269;51.894;4.622;2022-07-23T07:43:23;18.90;99.90
38500;DHT22;24269;51.894;4.622;2022-07-23T07:45:49;19.00;99.90
38500;DHT22;24269;51.894;4.622;2022-07-23T07:48:14;19.20;99.90
38500;DHT22;24269;51.894;4.622;2022-07-23T07:50:40;19.10;99.90
38500;DHT22;24269;51.894;4.622;2022-07-23T07:53:05;19.30;99.90
38500;DHT22;24269;51.894;4.622;2022-07-23T07:55:31;19.50;99.90
38500;DHT22;24269;51.894;4.622;2022-07-23T07:57:57;19.60;99.90
38500;DHT22;24269;51.894;4.622;2022-07-23T08:00:23;19.80;99.90
38500;DHT22;24269;51.894;4.622;2022-07-23T08:02:51;19.80;99.90
38500;DHT22;24269;51.894;4.622;2022-07-23T08:05:25;19.90;99.90
38500;DHT22;24269;51.894;4.622;2022-07-23T08:07:51;20.00;99.90
38500;DHT22;24269;51.894;4.622;2022-07-23T08:10:17;19.90;99.90
38500;DHT22;24269;51.894;4.622;2022-07-23T08:12:45;19.90;99.90
38500;DHT22;24269;51.894;4.622;2022-07-23T08:15:12;20.00;99.90
38500;DHT22;24269;51.894;4.622;2022-07-23T08:17:38;20.00;99.90
38500;DHT22;24269;51.894;4.622;2022-07-23T08:20:05;20.30;99.90
38500;DHT22;24269;51.894;4.622;2022-07-23T08:25:10;20.70;99.90
38500;DHT22;24269;51.894;4.622;2022-07-23T08:27:36;20.70;99.90
38500;DHT22;24269;51.894;4.622;2022-07-23T08:30:02;20.70;99.90
38500;DHT22;24269;51.894;4.622;2022-07-23T08:32:27;20.70;99.90
38500;DHT22;24269;51.894;4.622;2022-07-23T08:34:53;20.70;99.90
38500;DHT22;24269;51.894;4.622;2022-07-23T08:37:18;21.00;99.90
38500;DHT22;24269;51.894;4.622;2022-07-23T08:39:44;21.10;99.90
38500;DHT22;24269;51.894;4.622;2022-07-23T08:42:10;21.20;99.90
38500;DHT22;24269;51.894;4.622;2022-07-23T08:44:35;21.30;99.90
38500;DHT22;24269;51.894;4.622;2022-07-23T08:47:01;21.40;99.90
38500;DHT22;24269;51.894;4.622;2022-07-23T08:49:28;21.30;99.90
38500;DHT22;24269;51.894;4.622;2022-07-23T08:51:55;21.50;99.90
38500;DHT22;24269;51.894;4.622;2022-07-23T08:54:22;21.60;99.90
38500;DHT22;24269;51.894;4.622;2022-07-23T08:56:48;21.80;99.90
38500;DHT22;24269;51.894;4.622;2022-07-23T08:59:14;21.70;99.90
38500;DHT22;24269;51.894;4.622;2022-07-23T09:01:39;21.90;99.90
38500;DHT22;24269;51.894;4.622;2022-07-23T09:04:05;22.00;99.90
38500;DHT22;24269;51.894;4.622;2022-07-23T09:06:31;22.20;99.90
38500;DHT22;24269;51.894;4.622;2022-07-23T09:08:57;22.20;99.90
38500;DHT22;24269;51.894;4.622;2022-07-23T09:11:22;22.30;99.90
38500;DHT22;24269;51.894;4.622;2022-07-23T09:13:52;22.30;99.90
38500;DHT22;24269;51.894;4.622;2022-07-23T09:16:19;22.30;99.90
38500;DHT22;24269;51.894;4.622;2022-07-23T09:18:58;22.40;99.90
38500;DHT22;24269;51.894;4.622;2022-07-23T09:23:58;22.00;99.90
38500;DHT22;24269;51.894;4.622;2022-07-23T09:26:35;22.10;99.90
38500;DHT22;24269;51.894;4.622;2022-07-23T09:29:19;22.30;99.90
38500;DHT22;24269;51.894;4.622;2022-07-23T09:31:58;22.50;99.90
38500;DHT22;24269;51.894;4.622;2022-07-23T09:34:29;22.80;99.90
38500;DHT22;24269;51.894;4.622;2022-07-23T09:37:17;22.80;99.90
38500;DHT22;24269;51.894;4.622;2022-07-23T09:39:45;22.60;99.90
38500;DHT22;24269;51.894;4.622;2022-07-23T09:42:21;22.60;99.90
38500;DHT22;24269;51.894;4.622;2022-07-23T09:44:48;22.80;99.90
38500;DHT22;24269;51.894;4.622;2022-07-23T09:47:15;23.00;99.90
38500;DHT22;24269;51.894;4.622;2022-07-23T09:50:09;23.10;99.90
38500;DHT22;24269;51.894;4.622;2022-07-23T09:52:48;23.20;99.90
38500;DHT22;24269;51.894;4.622;2022-07-23T09:55:15;23.30;99.90
38500;DHT22;24269;51.894;4.622;2022-07-23T09:57:42;23.40;99.90
38500;DHT22;24269;51.894;4.622;2022-07-23T10:03:33;23.40;99.90
38500;DHT22;24269;51.894;4.622;2022-07-23T10:05:58;23.30;99.90
38500;DHT22;24269;51.894;4.622;2022-07-23T10:08:24;23.30;99.90
38500;DHT22;24269;51.894;4.622;2022-07-23T10:10:51;23.30;99.90
38500;DHT22;24269;51.894;4.622;2022-07-23T10:13:18;23.40;99.90
38500;DHT22;24269;51.894;4.622;2022-07-23T10:16:07;23.50;99.90
38500;DHT22;24269;51.894;4.622;2022-07-23T10:18:33;23.70;99.90
38500;DHT22;24269;51.894;4.622;2022-07-23T10:20:59;23.70;99.90
38500;DHT22;24269;51.894;4.622;2022-07-23T10:23:42;23.80;99.90
38500;DHT22;24269;51.894;4.622;2022-07-23T10:26:27;23.90;99.90
38500;DHT22;24269;51.894;4.622;2022-07-23T10:32:00;24.20;99.90
38500;DHT22;24269;51.894;4.622;2022-07-23T10:34:49;24.40;99.90
38500;DHT22;24269;51.894;4.622;2022-07-23T10:40:20;24.40;99.90
38500;DHT22;24269;51.894;4.622;2022-07-23T10:42:51;24.70;99.90
38500;DHT22;24269;51.894;4.622;2022-07-23T10:45:33;24.90;99.90
38500;DHT22;24269;51.894;4.622;2022-07-23T10:56:50;25.30;99.90
38500;DHT22;24269;51.894;4.622;2022-07-23T10:59:16;25.30;99.90
38500;DHT22;24269;51.894;4.622;2022-07-23T11:01:42;25.30;99.90
38500;DHT22;24269;51.894;4.622;2022-07-23T11:04:07;25.40;99.90
38500;DHT22;24269;51.894;4.622;2022-07-23T11:09:28;25.80;99.90
38500;DHT22;24269;51.894;4.622;2022-07-23T11:25:28;26.00;99.90
38500;DHT22;24269;51.894;4.622;2022-07-23T11:27:54;26.10;99.90
38500;DHT22;24269;51.894;4.622;2022-07-23T11:32:51;26.30;99.90
38500;DHT22;24269;51.894;4.622;2022-07-23T11:37:46;26.50;99.90
38500;DHT22;24269;51.894;4.622;2022-07-23T11:40:15;26.50;99.90
38500;DHT22;24269;51.894;4.622;2022-07-23T11:42:58;26.50;99.90
38500;DHT22;24269;51.894;4.622;2022-07-23T11:45:29;26.70;99.90
38500;DHT22;24269;51.894;4.622;2022-07-23T11:47:55;27.00;99.90
38500;DHT22;24269;51.894;4.622;2022-07-23T11:50:23;27.20;99.90
38500;DHT22;24269;51.894;4.622;2022-07-23T11:52:50;27.40;99.90
38500;DHT22;24269;51.894;4.622;2022-07-23T11:55:16;27.40;99.90
38500;DHT22;24269;51.894;4.622;2022-07-23T11:57:43;27.20;99.90
38500;DHT22;24269;51.894;4.622;2022-07-23T12:00:15;27.50;99.90
38500;DHT22;24269;51.894;4.622;2022-07-23T12:02:49;27.70;99.30
38500;DHT22;24269;51.894;4.622;2022-07-23T12:05:35;27.80;98.40
38500;DHT22;24269;51.894;4.622;2022-07-23T12:08:04;27.90;99.30
38500;DHT22;24269;51.894;4.622;2022-07-23T12:10:41;28.00;99.00
38500;DHT22;24269;51.894;4.622;2022-07-23T12:13:13;27.90;98.10
38500;DHT22;24269;51.894;4.622;2022-07-23T12:15:43;27.40;99.90
38500;DHT22;24269;51.894;4.622;2022-07-23T12:18:11;27.80;99.20
38500;DHT22;24269;51.894;4.622;2022-07-23T12:20:44;28.10;99.40
38500;DHT22;24269;51.894;4.622;2022-07-23T12:23:12;27.90;99.80
38500;DHT22;24269;51.894;4.622;2022-07-23T12:25:41;28.00;99.90
38500;DHT22;24269;51.894;4.622;2022-07-23T12:28:17;28.10;97.90
38500;DHT22;24269;51.894;4.622;2022-07-23T12:30:45;27.90;99.00
38500;DHT22;24269;51.894;4.622;2022-07-23T12:33:25;27.90;98.60
38500;DHT22;24269;51.894;4.622;2022-07-23T12:35:54;28.20;99.00
38500;DHT22;24269;51.894;4.622;2022-07-23T12:38:21;28.20;97.40
38500;DHT22;24269;51.894;4.622;2022-07-23T12:41:05;28.10;97.40
38500;DHT22;24269;51.894;4.622;2022-07-23T12:43:37;27.70;97.50
38500;DHT22;24269;51.894;4.622;2022-07-23T12:46:09;27.50;98.10
38500;DHT22;24269;51.894;4.622;2022-07-23T12:51:07;27.20;99.00
38500;DHT22;24269;51.894;4.622;2022-07-23T13:01:08;27.40;99.90
38500;DHT22;24269;51.894;4.622;2022-07-23T13:03:41;28.10;99.60
38500;DHT22;24269;51.894;4.622;2022-07-23T13:06:11;28.70;98.50
38500;DHT22;24269;51.894;4.622;2022-07-23T13:08:38;28.70;97.30
38500;DHT22;24269;51.894;4.622;2022-07-23T13:11:06;28.60;98.50
38500;DHT22;24269;51.894;4.622;2022-07-23T13:13:34;28.90;98.50
38500;DHT22;24269;51.894;4.622;2022-07-23T13:16:01;29.20;97.10
38500;DHT22;24269;51.894;4.622;2022-07-23T13:18:28;29.40;96.20
38500;DHT22;24269;51.894;4.622;2022-07-23T13:20:54;29.40;94.90
38500;DHT22;24269;51.894;4.622;2022-07-23T13:23:21;29.40;97.10
38500;DHT22;24269;51.894;4.622;2022-07-23T13:25:47;29.50;94.90
38500;DHT22;24269;51.894;4.622;2022-07-23T13:28:14;29.30;95.00
38500;DHT22;24269;51.894;4.622;2022-07-23T13:30:41;29.30;95.50
38500;DHT22;24269;51.894;4.622;2022-07-23T13:33:07;29.70;95.90
38500;DHT22;24269;51.894;4.622;2022-07-23T13:35:34;30.30;96.00
38500;DHT22;24269;51.894;4.622;2022-07-23T13:38:01;30.70;95.00
38500;DHT22;24269;51.894;4.622;2022-07-23T13:40:27;31.00;94.00
38500;DHT22;24269;51.894;4.622;2022-07-23T13:42:53;31.10;94.10
38500;DHT22;24269;51.894;4.622;2022-07-23T13:45:19;31.40;94.30
38500;DHT22;24269;51.894;4.622;2022-07-23T13:47:44;31.70;94.00
38500;DHT22;24269;51.894;4.622;2022-07-23T13:50:10;31.90;93.20
38500;DHT22;24269;51.894;4.622;2022-07-23T13:52:36;32.10;92.90
38500;DHT22;24269;51.894;4.622;2022-07-23T13:55:05;32.30;92.50
38500;DHT22;24269;51.894;4.622;2022-07-23T13:57:31;32.10;91.80
38500;DHT22;24269;51.894;4.622;2022-07-23T13:59:57;31.40;92.10
38500;DHT22;24269;51.894;4.622;2022-07-23T14:02:23;31.00;91.60
38500;DHT22;24269;51.894;4.622;2022-07-23T14:04:50;30.80;92.10
38500;DHT22;24269;51.894;4.622;2022-07-23T14:07:16;30.80;92.60
38500;DHT22;24269;51.894;4.622;2022-07-23T14:09:42;31.00;93.40
38500;DHT22;24269;51.894;4.622;2022-07-23T14:12:08;31.10;92.00
38500;DHT22;24269;51.894;4.622;2022-07-23T14:14:34;31.00;91.50
38500;DHT22;24269;51.894;4.622;2022-07-23T14:17:00;31.10;92.10
38500;DHT22;24269;51.894;4.622;2022-07-23T14:19:26;31.10;92.20
38500;DHT22;24269;51.894;4.622;2022-07-23T14:21:51;30.90;91.30
38500;DHT22;24269;51.894;4.622;2022-07-23T14:24:17;31.00;91.80
38500;DHT22;24269;51.894;4.622;2022-07-23T14:26:42;31.40;90.90
38500;DHT22;24269;51.894;4.622;2022-07-23T14:29:08;31.70;90.80
38500;DHT22;24269;51.894;4.622;2022-07-23T14:31:34;31.80;86.40
38500;DHT22;24269;51.894;4.622;2022-07-23T14:34:00;31.60;90.10
38500;DHT22;24269;51.894;4.622;2022-07-23T14:36:26;31.90;89.10
38500;DHT22;24269;51.894;4.622;2022-07-23T14:38:52;31.90;87.10
38500;DHT22;24269;51.894;4.622;2022-07-23T14:41:18;31.20;88.20
38500;DHT22;24269;51.894;4.622;2022-07-23T14:43:44;30.70;89.00
38500;DHT22;24269;51.894;4.622;2022-07-23T14:46:10;31.00;86.40
38500;DHT22;24269;51.894;4.622;2022-07-23T14:48:37;31.70;84.00
38500;DHT22;24269;51.894;4.622;2022-07-23T14:51:03;32.50;85.60
38500;DHT22;24269;51.894;4.622;2022-07-23T14:53:29;33.40;81.00
38500;DHT22;24269;51.894;4.622;2022-07-23T14:55:54;33.80;78.40
38500;DHT22;24269;51.894;4.622;2022-07-23T14:58:22;34.00;77.30
38500;DHT22;24269;51.894;4.622;2022-07-23T15:00:48;33.90;74.40
38500;DHT22;24269;51.894;4.622;2022-07-23T15:03:14;33.20;75.60
38500;DHT22;24269;51.894;4.622;2022-07-23T15:05:40;33.00;75.70
38500;DHT22;24269;51.894;4.622;2022-07-23T15:08:05;32.80;76.90
38500;DHT22;24269;51.894;4.622;2022-07-23T15:10:31;32.30;79.10
38500;DHT22;24269;51.894;4.622;2022-07-23T15:12:56;31.10;79.50
38500;DHT22;24269;51.894;4.622;2022-07-23T15:15:22;30.20;81.40
38500;DHT22;24269;51.894;4.622;2022-07-23T15:17:48;30.00;82.30
38500;DHT22;24269;51.894;4.622;2022-07-23T15:20:13;29.70;84.50
38500;DHT22;24269;51.894;4.622;2022-07-23T15:22:39;29.40;87.40
38500;DHT22;24269;51.894;4.622;2022-07-23T15:25:05;29.60;87.20
38500;DHT22;24269;51.894;4.622;2022-07-23T15:27:31;30.00;87.20
38500;DHT22;24269;51.894;4.622;2022-07-23T15:29:57;30.70;87.10
38500;DHT22;24269;51.894;4.622;2022-07-23T15:32:22;31.60;86.10
38500;DHT22;24269;51.894;4.622;2022-07-23T15:34:52;32.50;83.30
38500;DHT22;24269;51.894;4.622;2022-07-23T15:37:18;33.00;82.70
38500;DHT22;24269;51.894;4.622;2022-07-23T15:39:43;33.10;82.50
38500;DHT22;24269;51.894;4.622;2022-07-23T15:42:09;33.00;83.60
38500;DHT22;24269;51.894;4.622;2022-07-23T15:44:35;33.30;81.90
38500;DHT22;24269;51.894;4.622;2022-07-23T15:47:01;33.80;80.60
38500;DHT22;24269;51.894;4.622;2022-07-23T15:49:27;34.10;78.60
38500;DHT22;24269;51.894;4.622;2022-07-23T15:51:53;34.50;78.40
38500;DHT22;24269;51.894;4.622;2022-07-23T15:54:20;34.60;79.20
38500;DHT22;24269;51.894;4.622;2022-07-23T15:56:46;34.70;76.60
38500;DHT22;24269;51.894;4.622;2022-07-23T15:59:12;34.80;76.90
38500;DHT22;24269;51.894;4.622;2022-07-23T16:01:37;34.10;75.90
38500;DHT22;24269;51.894;4.622;2022-07-23T16:04:03;33.40;76.50
38500;DHT22;24269;51.894;4.622;2022-07-23T16:06:31;32.50;77.40
38500;DHT22;24269;51.894;4.622;2022-07-23T16:08:57;32.00;78.40
38500;DHT22;24269;51.894;4.622;2022-07-23T16:11:24;31.40;80.30
38500;DHT22;24269;51.894;4.622;2022-07-23T16:13:49;30.80;80.40
38500;DHT22;24269;51.894;4.622;2022-07-23T16:16:15;30.50;81.40
38500;DHT22;24269;51.894;4.622;2022-07-23T16:18:41;30.10;82.20
38500;DHT22;24269;51.894;4.622;2022-07-23T16:21:07;29.80;83.30
38500;DHT22;24269;51.894;4.622;2022-07-23T16:23:32;29.40;83.80